Frio Town, Texas
Current Conditions -  °F | °C
As of 7:53 PM on Saturday 25 Oct 2014 (Local Time) from KCOT Reporting Station
Clear Clear  
Wind Chill: 80°   Ceiling: Unl
Heat Index: 80°   Visibility: 10mi
Dew Point: 53°   Wind: 5mph
Humidity: 39%   Direction: 120°ESE
Pressure: 30.06"   Gusts: NA
Location:  28.8736°N, 99.1074°W
Report Text: KCOT 260053Z AUTO 12004KT 10SM CLR 27/12 A3006 RMK AO2 SLP174 T02670117
Loading
Personal Weather Stations






























Interactive Weather Map
Tropical Storm Tracking
New forecast layout! Learn more

10-Day Weather Forecast

Advertisements
Track Severe Weather on mobile